createdAt,value
2022-11-22T00:00:27.803Z,9.38
2022-11-22T00:02:54.925Z,9.47
2022-11-22T00:05:22.127Z,9.35
2022-11-22T00:07:49.090Z,9.23
2022-11-22T00:10:15.984Z,9.11
2022-11-22T00:12:43.282Z,9.28
2022-11-22T00:15:10.695Z,9.49
2022-11-22T00:17:37.718Z,8.97
2022-11-22T00:20:06.460Z,9.19
2022-11-22T00:22:33.192Z,9.27
2022-11-22T00:25:00.415Z,9.30
2022-11-22T00:27:27.420Z,9.05
2022-11-22T00:29:54.289Z,9.16
2022-11-22T00:32:21.047Z,9.23
2022-11-22T00:34:47.961Z,9.34
2022-11-22T00:37:14.707Z,9.25
2022-11-22T00:39:41.496Z,9.29
2022-11-22T00:42:08.257Z,9.04
2022-11-22T00:44:35.193Z,8.80
2022-11-22T00:47:01.950Z,9.14
2022-11-22T00:49:29.287Z,8.77
2022-11-22T00:51:56.248Z,8.70
2022-11-22T00:54:23.202Z,8.62
2022-11-22T00:56:49.920Z,8.78
2022-11-22T00:59:16.662Z,8.87
2022-11-22T01:01:43.465Z,8.92
2022-11-22T01:04:10.288Z,9.13
2022-11-22T01:06:37.264Z,9.20
2022-11-22T01:09:04.642Z,9.17
2022-11-22T01:11:31.321Z,8.98
2022-11-22T01:13:58.044Z,9.25
2022-11-22T01:16:24.998Z,9.23
2022-11-22T01:18:51.638Z,9.08
2022-11-22T01:21:18.453Z,9.09
2022-11-22T01:23:45.171Z,9.05
2022-11-22T01:26:12.482Z,9.21
2022-11-22T01:28:39.320Z,9.07
2022-11-22T01:31:06.077Z,9.25
2022-11-22T01:33:33.138Z,8.94
2022-11-22T01:35:59.918Z,9.02
2022-11-22T01:38:26.717Z,8.68
2022-11-22T01:40:53.829Z,8.85
2022-11-22T01:43:26.613Z,8.85
2022-11-22T01:45:58.879Z,8.71
2022-11-22T01:48:49.955Z,8.65
2022-11-22T01:51:25.046Z,8.99
2022-11-22T01:53:54.857Z,8.94
2022-11-22T01:56:22.536Z,8.43
2022-11-22T01:58:54.996Z,8.62
2022-11-22T02:01:23.921Z,8.55
2022-11-22T02:03:54.031Z,8.83
2022-11-22T02:06:21.178Z,8.98
2022-11-22T02:08:58.333Z,8.48
2022-11-22T02:11:33.627Z,8.72
2022-11-22T02:14:01.673Z,8.58
2022-11-22T02:16:28.870Z,8.33
2022-11-22T02:18:55.811Z,8.11
2022-11-22T02:21:22.651Z,8.39
2022-11-22T02:24:14.974Z,8.42
2022-11-22T02:26:42.157Z,8.26
2022-11-22T02:29:08.846Z,8.02
2022-11-22T02:31:42.592Z,8.48
2022-11-22T02:34:10.969Z,8.05
2022-11-22T02:36:44.265Z,8.38
2022-11-22T02:39:16.385Z,7.97
2022-11-22T02:41:44.509Z,8.10
2022-11-22T02:44:12.487Z,8.29
2022-11-22T02:46:55.686Z,8.60
2022-11-22T02:49:24.507Z,8.68
2022-11-22T02:51:52.527Z,8.42
2022-11-22T02:54:19.989Z,8.02
2022-11-22T02:56:47.188Z,8.54
2022-11-22T02:59:14.249Z,8.61
2022-11-22T03:01:42.014Z,8.66
2022-11-22T03:04:08.874Z,8.55
2022-11-22T03:06:35.593Z,8.42
2022-11-22T03:09:02.721Z,7.58
2022-11-22T03:11:29.482Z,8.05
2022-11-22T03:13:56.170Z,8.28
2022-11-22T03:16:23.031Z,8.45
2022-11-22T03:18:49.771Z,8.18
2022-11-22T03:21:16.553Z,7.97
2022-11-22T03:23:43.266Z,7.42
2022-11-22T03:26:11.784Z,7.67
2022-11-22T03:28:38.596Z,7.71
2022-11-22T03:31:08.575Z,7.72
2022-11-22T03:33:35.839Z,7.60
2022-11-22T03:36:03.301Z,7.42
2022-11-22T03:38:30.601Z,7.43
2022-11-22T03:40:57.633Z,7.54
2022-11-22T03:43:24.654Z,7.81
2022-11-22T03:45:51.673Z,6.97
2022-11-22T03:48:19.084Z,7.07
2022-11-22T03:50:46.657Z,6.89
2022-11-22T03:53:13.966Z,7.24
2022-11-22T03:55:41.012Z,7.26
2022-11-22T03:58:07.876Z,7.34
2022-11-22T04:00:35.469Z,7.32
2022-11-22T04:03:02.413Z,7.22
2022-11-22T04:05:29.462Z,7.50
2022-11-22T04:07:59.383Z,7.82
2022-11-22T04:10:26.747Z,7.34
2022-11-22T04:12:58.401Z,7.68
2022-11-22T04:15:26.751Z,7.69
2022-11-22T04:17:53.824Z,7.79
2022-11-22T04:20:45.077Z,7.53
2022-11-22T04:23:18.022Z,7.43
2022-11-22T04:25:47.406Z,7.47
2022-11-22T04:28:16.609Z,7.25
2022-11-22T04:31:02.250Z,7.45
2022-11-22T04:33:29.656Z,6.85
2022-11-22T04:35:56.522Z,7.32
2022-11-22T04:38:23.614Z,6.59
2022-11-22T04:40:50.428Z,6.94
2022-11-22T04:43:54.032Z,7.38
2022-11-22T04:46:20.817Z,7.50
2022-11-22T04:48:47.554Z,7.56
2022-11-22T04:51:33.746Z,7.56
2022-11-22T04:54:00.774Z,7.18
2022-11-22T04:56:27.509Z,7.01
2022-11-22T04:58:54.766Z,7.34
2022-11-22T05:01:21.885Z,6.79
2022-11-22T05:03:48.662Z,6.57
2022-11-22T05:06:15.312Z,6.46
2022-11-22T05:08:42.024Z,6.59
2022-11-22T05:11:08.990Z,6.59
2022-11-22T05:13:37.994Z,6.97
2022-11-22T05:16:06.789Z,7.34
2022-11-22T05:18:33.767Z,7.39
2022-11-22T05:21:08.906Z,7.67
2022-11-22T05:23:54.306Z,7.97
2022-11-22T05:26:26.563Z,7.89
2022-11-22T05:28:54.254Z,7.72
2022-11-22T05:31:23.520Z,7.61
2022-11-22T05:33:52.646Z,7.91
2022-11-22T05:36:20.287Z,7.81
2022-11-22T05:38:47.943Z,7.16
2022-11-22T05:41:16.042Z,7.36
2022-11-22T05:43:43.183Z,7.58
2022-11-22T05:46:12.155Z,7.71
2022-11-22T05:48:41.878Z,7.50
2022-11-22T05:51:14.730Z,7.52
2022-11-22T05:53:42.972Z,7.66
2022-11-22T05:56:18.436Z,7.56
2022-11-22T05:58:46.031Z,7.68
2022-11-22T06:01:15.550Z,7.76
2022-11-22T06:03:43.217Z,7.88
2022-11-22T06:06:10.695Z,8.05
2022-11-22T06:08:41.094Z,7.93
2022-11-22T06:11:10.124Z,8.04
2022-11-22T06:13:38.687Z,7.73
2022-11-22T06:16:07.339Z,7.87
2022-11-22T06:18:35.125Z,7.60
2022-11-22T06:21:04.640Z,7.79
2022-11-22T06:23:31.713Z,8.12
2022-11-22T06:26:03.256Z,8.22
2022-11-22T06:28:31.434Z,8.34
2022-11-22T06:31:25.631Z,8.65
2022-11-22T06:33:59.728Z,8.58
2022-11-22T06:36:29.156Z,8.37
2022-11-22T06:38:57.592Z,8.67
2022-11-22T06:41:27.103Z,8.93
2022-11-22T06:43:56.323Z,8.81
2022-11-22T06:46:25.328Z,8.98
2022-11-22T06:48:52.871Z,9.00
2022-11-22T06:51:22.563Z,8.91
2022-11-22T06:53:51.522Z,9.19
2022-11-22T06:56:29.800Z,9.29
2022-11-22T06:58:57.956Z,9.12
2022-11-22T07:01:27.398Z,9.59
2022-11-22T07:03:58.340Z,9.82
2022-11-22T07:06:27.840Z,9.23
2022-11-22T07:08:55.780Z,9.16
2022-11-22T07:11:25.246Z,9.11
2022-11-22T07:13:52.859Z,9.08
2022-11-22T07:16:21.085Z,9.09
2022-11-22T07:18:48.688Z,9.38
2022-11-22T07:21:24.098Z,9.66
2022-11-22T07:23:53.086Z,9.74
2022-11-22T07:26:21.606Z,9.62
2022-11-22T07:28:49.667Z,9.99
2022-11-22T07:31:17.633Z,10.01
2022-11-22T07:33:44.611Z,10.17
2022-11-22T07:36:22.234Z,10.44
2022-11-22T07:38:49.457Z,10.23
2022-11-22T07:41:18.361Z,9.80
2022-11-22T07:43:47.013Z,10.34
2022-11-22T07:46:31.363Z,10.50
2022-11-22T07:49:00.148Z,10.70
2022-11-22T07:51:27.202Z,10.76
2022-11-22T07:53:55.578Z,10.75
2022-11-22T07:56:23.326Z,10.63
2022-11-22T07:58:51.149Z,10.52
2022-11-22T08:01:20.170Z,9.80
2022-11-22T08:03:48.023Z,10.12
2022-11-22T08:06:15.425Z,9.98
2022-11-22T08:08:43.593Z,10.13
2022-11-22T08:11:11.363Z,10.48
2022-11-22T08:13:38.339Z,10.44
2022-11-22T08:16:11.294Z,10.74
2022-11-22T08:18:39.208Z,11.06
2022-11-22T08:21:11.240Z,11.26
2022-11-22T08:23:38.826Z,10.14
2022-11-22T08:26:07.741Z,10.29
2022-11-22T08:28:34.816Z,9.88
2022-11-22T08:31:08.866Z,10.40
2022-11-22T08:33:35.600Z,10.53
2022-11-22T08:36:02.602Z,10.40
2022-11-22T08:38:29.680Z,10.34
2022-11-22T08:40:56.712Z,10.29
2022-11-22T08:43:23.798Z,10.15
2022-11-22T08:45:56.889Z,10.06
2022-11-22T08:48:24.968Z,10.50
2022-11-22T08:51:01.471Z,10.70
2022-11-22T08:53:29.873Z,10.44
2022-11-22T08:55:59.461Z,10.62
2022-11-22T08:58:26.718Z,9.89
2022-11-22T09:00:53.373Z,10.09
2022-11-22T09:03:20.141Z,9.56
2022-11-22T09:08:36.384Z,10.33
2022-11-22T09:11:13.483Z,10.23
2022-11-22T09:13:40.734Z,10.46
2022-11-22T09:16:13.809Z,10.60
2022-11-22T09:18:41.278Z,10.79
2022-11-22T09:21:11.687Z,10.62
2022-11-22T09:23:38.609Z,10.63
2022-11-22T09:26:08.980Z,10.99
2022-11-22T09:28:36.300Z,10.81
2022-11-22T09:31:09.370Z,10.84
2022-11-22T09:33:38.553Z,11.05
2022-11-22T09:36:11.047Z,11.07
2022-11-22T09:38:38.365Z,11.37
2022-11-22T09:41:17.244Z,11.33
2022-11-22T09:43:53.329Z,11.08
2022-11-22T09:46:32.146Z,11.32
2022-11-22T09:49:21.632Z,11.67
2022-11-22T09:52:08.239Z,11.64
2022-11-22T09:54:43.785Z,10.83
2022-11-22T09:57:24.913Z,11.36
2022-11-22T10:00:04.719Z,11.43
2022-11-22T10:02:59.814Z,11.40
2022-11-22T10:05:39.220Z,11.24
2022-11-22T10:08:34.079Z,11.46
2022-11-22T10:11:03.605Z,11.58
2022-11-22T10:14:00.705Z,11.89
2022-11-22T10:16:41.829Z,12.08
2022-11-22T10:19:16.678Z,12.05
2022-11-22T10:21:47.216Z,11.92
2022-11-22T10:24:16.857Z,11.78
2022-11-22T10:26:44.290Z,11.78
2022-11-22T10:29:56.256Z,12.17
2022-11-22T10:32:47.257Z,12.30
2022-11-22T10:35:22.937Z,12.20
2022-11-22T10:37:57.934Z,11.95
2022-11-22T10:40:43.725Z,12.22
2022-11-22T10:43:31.665Z,12.12
2022-11-22T10:46:34.705Z,12.03
2022-11-22T10:49:20.843Z,12.17
2022-11-22T10:51:59.734Z,12.19
2022-11-22T10:54:55.721Z,12.35
2022-11-22T10:57:37.581Z,12.17
2022-11-22T11:00:27.602Z,12.37
2022-11-22T11:03:12.342Z,12.26
2022-11-22T11:06:07.955Z,12.05
2022-11-22T11:09:36.320Z,11.56
2022-11-22T11:11:34.687Z,11.70
2022-11-22T11:14:10.660Z,11.96
2022-11-22T11:16:38.892Z,11.95
2022-11-22T11:19:17.909Z,12.07
2022-11-22T11:21:44.920Z,11.48
2022-11-22T11:24:16.480Z,11.52
2022-11-22T11:26:53.247Z,11.89
2022-11-22T11:29:38.143Z,12.14
2022-11-22T11:32:09.872Z,12.27
2022-11-22T11:34:38.417Z,11.87
2022-11-22T11:37:06.074Z,11.66
2022-11-22T11:39:34.702Z,11.99
2022-11-22T11:42:20.162Z,12.07
2022-11-22T11:44:47.173Z,12.07
2022-11-22T11:47:20.510Z,12.02
2022-11-22T11:49:51.654Z,12.15
2022-11-22T11:52:26.712Z,11.93
2022-11-22T11:54:56.375Z,11.97
2022-11-22T11:57:36.368Z,12.11
2022-11-22T12:00:18.918Z,11.76
2022-11-22T12:02:52.049Z,12.03
2022-11-22T12:05:18.990Z,12.03
2022-11-22T12:07:46.879Z,11.58
2022-11-22T12:10:47.574Z,11.87
2022-11-22T12:13:58.139Z,11.91
2022-11-22T12:16:40.010Z,11.71
2022-11-22T12:19:37.009Z,11.86
2022-11-22T12:25:42.132Z,11.50
2022-11-22T12:28:21.635Z,11.74
2022-11-22T12:30:57.064Z,11.97
2022-11-22T12:33:34.219Z,12.04
2022-11-22T12:36:03.626Z,12.13
2022-11-22T12:38:36.712Z,12.16
2022-11-22T12:41:08.894Z,12.05
2022-11-22T12:43:35.684Z,11.79
2022-11-22T12:46:26.116Z,11.79
2022-11-22T12:48:23.629Z,12.12
2022-11-22T12:49:01.518Z,11.93
2022-11-22T12:51:40.066Z,12.04
2022-11-22T12:54:14.242Z,12.19
2022-11-22T12:56:53.724Z,12.57
2022-11-22T12:59:23.610Z,12.59
2022-11-22T13:02:04.535Z,12.60
2022-11-22T13:04:41.017Z,12.66
2022-11-22T13:07:14.060Z,12.69
2022-11-22T13:09:58.569Z,12.73
2022-11-22T13:12:33.600Z,13.02
2022-11-22T13:15:01.789Z,12.96
2022-11-22T13:17:35.012Z,12.94
2022-11-22T13:20:17.661Z,12.89
2022-11-22T13:23:18.468Z,12.73
2022-11-22T13:26:15.053Z,12.64
2022-11-22T13:28:43.618Z,12.61
2022-11-22T13:31:10.316Z,12.52
2022-11-22T13:33:40.335Z,12.27
2022-11-22T13:36:32.044Z,12.59
2022-11-22T13:39:02.170Z,12.62
2022-11-22T13:41:37.136Z,12.68
2022-11-22T13:44:21.968Z,12.48
2022-11-22T13:47:00.587Z,12.53
2022-11-22T13:49:49.421Z,12.39
2022-11-22T13:52:16.348Z,12.26
2022-11-22T13:54:43.057Z,12.23
2022-11-22T13:57:31.298Z,11.94
2022-11-22T14:00:16.596Z,12.01
2022-11-22T14:02:49.201Z,11.97
2022-11-22T14:05:41.759Z,11.75
2022-11-22T14:08:29.877Z,11.68
2022-11-22T14:10:56.685Z,11.49
2022-11-22T14:13:41.370Z,11.75
2022-11-22T14:16:14.909Z,11.69
2022-11-22T14:19:11.281Z,11.90
2022-11-22T14:21:59.202Z,11.98
2022-11-22T14:24:35.242Z,11.95
2022-11-22T14:27:15.578Z,12.32
2022-11-22T14:29:53.509Z,12.28
2022-11-22T14:32:23.869Z,12.31
2022-11-22T14:35:05.900Z,12.65
2022-11-22T14:37:32.747Z,12.42
2022-11-22T14:40:08.554Z,12.42
2022-11-22T14:42:40.086Z,11.88
2022-11-22T14:45:12.685Z,11.99
2022-11-22T14:47:51.711Z,11.71
2022-11-22T14:50:21.366Z,12.06
2022-11-22T14:52:48.407Z,11.79
2022-11-22T14:55:18.940Z,11.88
2022-11-22T14:57:49.262Z,11.91
2022-11-22T15:00:28.717Z,12.04
2022-11-22T15:03:32.981Z,11.90
2022-11-22T15:09:21.751Z,12.20
2022-11-22T15:09:53.333Z,11.85
2022-11-22T15:12:34.547Z,12.26
2022-11-22T15:58:04.014Z,12.21
2022-11-22T16:00:30.851Z,12.24
2022-11-22T16:03:04.490Z,12.28
2022-11-22T16:06:08.488Z,12.56
2022-11-22T16:08:27.866Z,12.55
2022-11-22T16:10:59.307Z,12.62
2022-11-22T16:13:28.383Z,12.60
2022-11-22T16:16:13.553Z,12.07
2022-11-22T16:18:43.157Z,12.31
2022-11-22T16:21:12.637Z,12.48
2022-11-22T16:23:45.207Z,12.49
2022-11-22T16:26:17.402Z,12.42
2022-11-22T16:28:44.766Z,12.08
2022-11-22T16:31:38.189Z,12.33
2022-11-22T16:34:13.572Z,12.34
2022-11-22T16:36:40.524Z,12.37
2022-11-22T16:39:07.194Z,12.45
2022-11-22T16:41:34.966Z,12.41
2022-11-22T16:44:06.774Z,12.44
2022-11-22T16:46:33.467Z,11.99
2022-11-22T16:49:00.208Z,11.92
2022-11-22T16:51:29.415Z,12.20
2022-11-22T16:54:07.866Z,12.09
2022-11-22T16:56:34.895Z,12.11
2022-11-22T16:59:01.624Z,11.80
2022-11-22T17:01:34.220Z,12.04
2022-11-22T17:04:03.030Z,12.12
2022-11-22T17:06:31.406Z,12.22
2022-11-22T17:08:59.893Z,12.32
2022-11-22T17:11:30.253Z,12.42
2022-11-22T17:13:58.088Z,12.44
2022-11-22T17:16:24.773Z,12.53
2022-11-22T17:18:53.080Z,12.52
2022-11-22T17:21:37.400Z,11.99
2022-11-22T17:24:07.428Z,12.16
2022-11-22T17:26:35.004Z,12.20
2022-11-22T17:29:01.834Z,12.35
2022-11-22T17:31:29.206Z,12.37
2022-11-22T17:33:58.312Z,12.45
2022-11-22T17:36:24.940Z,12.48
2022-11-22T17:38:51.801Z,12.28
2022-11-22T17:41:18.807Z,12.13
2022-11-22T17:43:45.706Z,11.90
2022-11-22T17:46:12.464Z,12.31
2022-11-22T17:48:39.250Z,12.12
2022-11-22T17:51:11.419Z,11.96
2022-11-22T17:53:38.831Z,11.97
2022-11-22T17:56:11.137Z,10.70
2022-11-22T17:58:39.616Z,11.31
2022-11-22T18:01:08.701Z,11.75
2022-11-22T18:03:36.051Z,11.54
2022-11-22T18:06:03.627Z,11.69
2022-11-22T18:08:30.805Z,11.97
2022-11-22T18:11:01.535Z,12.11
2022-11-22T18:13:31.186Z,12.08
2022-11-22T18:16:03.566Z,12.13
2022-11-22T18:21:19.269Z,12.06
2022-11-22T18:23:46.024Z,12.14
2022-11-22T18:29:35.504Z,11.88
2022-11-22T18:31:52.031Z,11.50
2022-11-22T18:34:20.007Z,11.51
2022-11-22T18:36:55.350Z,11.50
2022-11-22T18:39:25.292Z,11.40
2022-11-22T18:41:52.198Z,10.96
2022-11-22T18:44:19.215Z,10.94
2022-11-22T18:46:46.904Z,11.30
2022-11-22T18:49:14.123Z,11.59
2022-11-22T18:51:41.190Z,11.58
2022-11-22T18:54:10.396Z,11.02
2022-11-22T18:56:40.339Z,11.48
2022-11-22T18:59:10.492Z,11.66
2022-11-22T19:01:37.609Z,11.48
2022-11-22T19:04:05.119Z,11.90
2022-11-22T19:06:32.269Z,11.88
2022-11-22T19:08:59.370Z,12.07
2022-11-22T19:11:29.343Z,12.21
2022-11-22T19:13:56.028Z,12.32
2022-11-22T19:16:23.034Z,11.96
2022-11-22T19:18:50.003Z,12.16
2022-11-22T19:21:22.142Z,12.31
2022-11-22T19:23:50.570Z,12.33
2022-11-22T19:26:20.661Z,11.40
2022-11-22T19:28:48.806Z,11.61
2022-11-22T19:31:17.766Z,11.80
2022-11-22T19:33:45.762Z,11.17
2022-11-22T19:36:16.442Z,10.69
2022-11-22T19:38:44.015Z,11.29
2022-11-22T19:41:13.222Z,11.93
2022-11-22T19:43:40.483Z,11.97
2022-11-22T19:46:07.670Z,11.57
2022-11-22T19:48:35.775Z,11.74
2022-11-22T19:51:13.915Z,12.05
2022-11-22T19:53:41.996Z,12.16
2022-11-22T19:56:19.212Z,12.15
2022-11-22T19:58:51.286Z,12.33
2022-11-22T20:01:18.554Z,12.20
2022-11-22T20:03:45.859Z,12.24
2022-11-22T20:06:13.989Z,11.84
2022-11-22T20:08:41.636Z,11.10
2022-11-22T20:11:10.850Z,11.33
2022-11-22T20:13:41.090Z,11.51
2022-11-22T20:16:14.943Z,11.76
2022-11-22T20:18:42.015Z,11.82
2022-11-22T20:21:11.659Z,12.16
2022-11-22T20:23:38.884Z,12.10
2022-11-22T20:26:09.691Z,12.30
2022-11-22T20:28:41.038Z,11.96
2022-11-22T20:31:10.765Z,12.16
2022-11-22T20:33:40.069Z,12.31
2022-11-22T20:36:12.606Z,12.27
2022-11-22T20:38:44.276Z,11.40
2022-11-22T20:41:13.148Z,11.91
2022-11-22T20:43:40.840Z,12.20
2022-11-22T20:46:11.595Z,12.29
2022-11-22T20:48:40.146Z,12.38
2022-11-22T20:51:09.859Z,12.19
2022-11-22T20:53:37.251Z,12.13
2022-11-22T20:56:04.680Z,11.86
2022-11-22T20:58:32.186Z,12.06
2022-11-22T21:00:59.409Z,12.18
2022-11-22T21:03:27.506Z,11.70
2022-11-22T21:05:55.832Z,12.08
2022-11-22T21:08:23.135Z,11.29
2022-11-22T21:10:50.012Z,11.46
2022-11-22T21:13:16.810Z,11.96
2022-11-22T21:15:43.641Z,12.03
2022-11-22T21:18:25.243Z,12.18
2022-11-22T21:20:52.668Z,12.10
2022-11-22T21:23:19.645Z,10.94
2022-11-22T21:25:46.484Z,10.68
2022-11-22T21:28:13.187Z,11.05
2022-11-22T21:30:40.226Z,10.98
2022-11-22T21:33:06.943Z,11.31
2022-11-22T21:35:33.927Z,11.67
2022-11-22T21:38:00.742Z,11.40
2022-11-22T21:40:27.627Z,11.41
2022-11-22T21:42:54.324Z,11.25
2022-11-22T21:45:21.230Z,11.45
2022-11-22T21:47:49.686Z,11.47
2022-11-22T21:50:16.845Z,11.80
2022-11-22T21:52:43.815Z,12.16
2022-11-22T21:55:11.528Z,12.24
2022-11-22T21:57:38.656Z,12.35
2022-11-22T22:00:06.056Z,12.34
2022-11-22T22:02:33.104Z,12.29
2022-11-22T22:04:59.833Z,12.34
2022-11-22T22:07:51.511Z,12.31
2022-11-22T22:10:15.109Z,12.35
2022-11-22T22:12:42.012Z,12.00
2022-11-22T22:15:11.894Z,12.16
2022-11-22T22:17:38.654Z,11.78
2022-11-22T22:20:06.433Z,12.15
2022-11-22T22:22:38.518Z,12.18
2022-11-22T22:25:06.161Z,12.46
2022-11-22T22:27:33.826Z,12.32
2022-11-22T22:30:00.697Z,12.37
2022-11-22T22:32:28.018Z,12.24
2022-11-22T22:34:54.946Z,12.19
2022-11-22T22:37:21.791Z,12.21
2022-11-22T22:39:49.841Z,12.17
2022-11-22T22:42:18.899Z,11.95
2022-11-22T22:44:45.611Z,12.07
2022-11-22T22:47:12.424Z,12.24
2022-11-22T22:49:39.173Z,11.94
2022-11-22T22:52:06.035Z,12.14
2022-11-22T22:54:32.859Z,11.91
2022-11-22T22:56:59.867Z,12.25
2022-11-22T22:59:26.556Z,12.19
2022-11-22T23:01:53.305Z,12.29
2022-11-22T23:04:20.418Z,11.70
2022-11-22T23:06:47.184Z,11.81
2022-11-22T23:09:13.916Z,11.80
2022-11-22T23:12:01.032Z,11.61
2022-11-22T23:14:29.945Z,11.78
2022-11-22T23:16:58.185Z,11.76
2022-11-22T23:19:26.390Z,11.17
2022-11-22T23:21:53.422Z,10.98
2022-11-22T23:24:20.474Z,11.52
2022-11-22T23:26:47.675Z,11.76
2022-11-22T23:29:14.858Z,11.94
2022-11-22T23:31:41.643Z,11.88
2022-11-22T23:34:09.989Z,11.93
2022-11-22T23:36:40.663Z,11.88
2022-11-22T23:39:08.634Z,11.95
2022-11-22T23:41:35.508Z,11.20
2022-11-22T23:44:02.709Z,11.36
2022-11-22T23:46:29.485Z,11.23
2022-11-22T23:48:58.809Z,11.04
2022-11-22T23:51:27.577Z,11.30
2022-11-22T23:53:55.792Z,11.30
2022-11-22T23:56:23.807Z,11.16
2022-11-22T23:58:50.831Z,11.37
